createdAt,value
2022-11-24T00:01:18.333Z,39.88
2022-11-24T00:03:47.500Z,41.38
2022-11-24T00:06:16.332Z,39.67
2022-11-24T00:08:45.316Z,39.08
2022-11-24T00:11:18.215Z,37.08
2022-11-24T00:13:45.997Z,38.90
2022-11-24T00:16:21.804Z,35.88
2022-11-24T00:18:52.371Z,34.88
2022-11-24T00:21:20.241Z,36.17
2022-11-24T00:23:48.525Z,34.83
2022-11-24T00:26:24.090Z,34.05
2022-11-24T00:28:52.924Z,34.22
2022-11-24T00:31:22.979Z,34.38
2022-11-24T00:33:52.791Z,32.17
2022-11-24T00:36:22.551Z,31.13
2022-11-24T00:38:54.951Z,34.15
2022-11-24T00:41:23.016Z,31.60
2022-11-24T00:43:50.526Z,30.85
2022-11-24T00:46:17.996Z,32.45
2022-11-24T00:48:45.397Z,32.95
2022-11-24T00:51:13.974Z,33.35
2022-11-24T00:53:41.475Z,32.05
2022-11-24T00:56:09.334Z,31.98
2022-11-24T00:58:37.557Z,33.78
2022-11-24T01:01:12.281Z,33.50
2022-11-24T01:03:40.009Z,31.60
2022-11-24T01:06:10.052Z,32.70
2022-11-24T01:08:38.371Z,30.17
2022-11-24T01:11:09.825Z,31.92
2022-11-24T01:13:37.312Z,30.85
2022-11-24T01:16:04.572Z,31.17
2022-11-24T01:18:31.858Z,32.15
2022-11-24T01:20:59.272Z,29.77
2022-11-24T01:23:26.502Z,32.30
2022-11-24T01:25:54.127Z,30.02
2022-11-24T01:28:21.284Z,31.58
2022-11-24T01:30:59.460Z,30.17
2022-11-24T01:33:26.946Z,29.85
2022-11-24T01:35:55.256Z,30.00
2022-11-24T01:38:22.521Z,30.63
2022-11-24T01:40:49.736Z,29.20
2022-11-24T01:43:19.259Z,29.95
2022-11-24T01:45:46.869Z,29.92
2022-11-24T01:48:25.881Z,30.05
2022-11-24T01:51:04.834Z,29.40
2022-11-24T01:53:32.117Z,30.67
2022-11-24T01:55:59.689Z,28.50
2022-11-24T01:58:30.287Z,32.03
2022-11-24T02:00:57.571Z,30.52
2022-11-24T02:03:29.189Z,31.52
2022-11-24T02:06:09.400Z,30.60
2022-11-24T02:08:47.883Z,32.53
2022-11-24T02:11:15.223Z,34.25
2022-11-24T02:13:42.835Z,32.20
2022-11-24T02:16:12.013Z,32.53
2022-11-24T02:18:40.040Z,33.13
2022-11-24T02:21:08.061Z,33.20
2022-11-24T02:24:07.205Z,32.45
2022-11-24T02:26:41.734Z,30.58
2022-11-24T02:29:10.584Z,31.25
2022-11-24T02:31:38.544Z,32.05
2022-11-24T02:34:05.848Z,31.63
2022-11-24T02:36:33.130Z,31.90
2022-11-24T02:39:00.576Z,30.67
2022-11-24T02:41:28.433Z,31.10
2022-11-24T02:43:57.282Z,29.85
2022-11-24T02:46:24.886Z,28.70
2022-11-24T02:48:52.758Z,28.42
2022-11-24T02:51:20.307Z,28.25
2022-11-24T02:53:47.474Z,28.00
2022-11-24T02:56:14.699Z,25.02
2022-11-24T02:58:41.942Z,26.20
2022-11-24T03:01:09.294Z,26.35
2022-11-24T03:03:36.615Z,25.25
2022-11-24T03:06:03.891Z,24.05
2022-11-24T03:08:31.522Z,25.00
2022-11-24T03:10:58.784Z,23.83
2022-11-24T03:13:26.280Z,23.70
2022-11-24T03:15:53.538Z,24.73
2022-11-24T03:18:20.752Z,23.90
2022-11-24T03:20:47.903Z,23.25
2022-11-24T03:23:15.153Z,22.45
2022-11-24T03:25:42.330Z,23.50
2022-11-24T03:28:09.610Z,24.08
2022-11-24T03:30:36.775Z,22.88
2022-11-24T03:33:06.013Z,22.92
2022-11-24T03:35:33.212Z,22.20
2022-11-24T03:38:00.459Z,22.40
2022-11-24T03:40:27.684Z,22.27
2022-11-24T03:42:54.963Z,23.83
2022-11-24T03:45:45.074Z,23.42
2022-11-24T03:48:09.336Z,23.65
2022-11-24T03:50:36.598Z,24.02
2022-11-24T03:53:06.816Z,22.38
2022-11-24T03:55:34.012Z,21.92
2022-11-24T03:58:01.184Z,23.60
2022-11-24T04:00:28.669Z,21.30
2022-11-24T04:02:55.949Z,22.52
2022-11-24T04:05:23.278Z,22.23
2022-11-24T04:07:50.595Z,22.95
2022-11-24T04:10:17.925Z,22.70
2022-11-24T04:12:45.727Z,22.70
2022-11-24T04:15:15.959Z,22.65
2022-11-24T04:17:43.560Z,24.17
2022-11-24T04:20:12.245Z,22.38
2022-11-24T04:22:40.134Z,23.77
2022-11-24T04:25:08.433Z,22.80
2022-11-24T04:27:36.678Z,22.05
2022-11-24T04:30:05.625Z,24.38
2022-11-24T04:32:33.201Z,23.38
2022-11-24T04:35:00.380Z,23.15
2022-11-24T04:37:27.650Z,25.38
2022-11-24T04:39:55.706Z,24.65
2022-11-24T04:42:23.037Z,23.02
2022-11-24T04:44:50.303Z,24.10
2022-11-24T04:47:24.030Z,23.23
2022-11-24T04:49:51.631Z,24.00
2022-11-24T04:52:20.683Z,22.45
2022-11-24T04:54:49.057Z,22.70
2022-11-24T04:57:24.075Z,24.75
2022-11-24T04:59:52.135Z,22.05
2022-11-24T05:02:19.685Z,22.02
2022-11-24T05:04:47.442Z,23.45
2022-11-24T05:07:18.694Z,22.42
2022-11-24T05:10:06.333Z,21.95
2022-11-24T05:12:34.074Z,22.25
2022-11-24T05:15:02.404Z,21.98
2022-11-24T05:17:35.198Z,22.33
2022-11-24T05:20:02.371Z,23.77
2022-11-24T05:22:30.712Z,23.52
2022-11-24T05:24:57.981Z,21.02
2022-11-24T05:27:25.092Z,21.73
2022-11-24T05:29:52.162Z,21.63
2022-11-24T05:32:19.238Z,22.10
2022-11-24T05:34:46.420Z,21.13
2022-11-24T05:37:13.557Z,21.63
2022-11-24T05:39:40.650Z,19.90
2022-11-24T05:42:26.657Z,21.27
2022-11-24T05:44:54.155Z,20.55
2022-11-24T05:47:21.928Z,21.02
2022-11-24T05:49:49.210Z,19.50
2022-11-24T05:52:17.216Z,19.90
2022-11-24T05:54:44.369Z,21.13
2022-11-24T05:57:11.301Z,20.48
2022-11-24T05:59:38.952Z,19.85
2022-11-24T06:02:06.068Z,19.70
2022-11-24T06:04:33.621Z,18.88
2022-11-24T06:07:00.785Z,20.55
2022-11-24T06:09:27.738Z,19.70
2022-11-24T06:11:54.774Z,20.48
2022-11-24T06:14:21.897Z,22.08
2022-11-24T06:16:48.943Z,18.02
2022-11-24T06:19:15.932Z,20.23
2022-11-24T06:21:42.921Z,20.58
2022-11-24T06:24:09.953Z,18.60
2022-11-24T06:26:36.880Z,19.48
2022-11-24T06:29:03.940Z,17.08
2022-11-24T06:31:30.915Z,18.15
2022-11-24T06:33:57.923Z,19.50
2022-11-24T06:36:25.894Z,20.17
2022-11-24T06:38:53.009Z,23.30
2022-11-24T06:41:21.425Z,20.60
2022-11-24T06:43:48.378Z,22.50
2022-11-24T06:46:15.510Z,23.52
2022-11-24T06:48:42.541Z,24.08
2022-11-24T06:51:11.624Z,25.80
2022-11-24T06:53:39.977Z,24.75
2022-11-24T06:56:15.267Z,24.13
2022-11-24T06:58:45.841Z,23.92
2022-11-24T07:01:24.487Z,25.08
2022-11-24T07:03:52.387Z,26.13
2022-11-24T07:06:19.853Z,26.42
2022-11-24T07:08:47.336Z,25.27
2022-11-24T07:11:16.671Z,23.02
2022-11-24T07:13:44.621Z,23.58
2022-11-24T07:16:23.250Z,22.75
2022-11-24T07:18:52.092Z,20.27
2022-11-24T07:21:24.151Z,20.45
2022-11-24T07:23:53.060Z,21.98
2022-11-24T07:26:20.143Z,21.95
2022-11-24T07:28:47.130Z,21.65
2022-11-24T07:31:20.500Z,20.90
2022-11-24T07:33:52.310Z,21.80
2022-11-24T07:36:19.526Z,20.20
2022-11-24T07:38:46.683Z,18.85
2022-11-24T07:41:15.344Z,22.33
2022-11-24T07:43:42.501Z,20.52
2022-11-24T07:46:13.068Z,19.63
2022-11-24T07:51:07.699Z,18.80
2022-11-24T07:53:35.333Z,20.40
2022-11-24T07:56:12.958Z,20.73
2022-11-24T07:58:40.109Z,19.60
2022-11-24T08:01:12.365Z,18.48
2022-11-24T08:03:39.585Z,17.45
2022-11-24T08:08:53.845Z,20.83
2022-11-24T08:11:20.808Z,19.83
2022-11-24T08:13:47.871Z,21.42
2022-11-24T08:16:17.712Z,22.83
2022-11-24T08:18:49.036Z,26.45
2022-11-24T08:21:15.966Z,22.65
2022-11-24T08:23:43.033Z,22.55
2022-11-24T08:26:14.524Z,21.02
2022-11-24T08:28:41.689Z,21.13
2022-11-24T08:31:11.137Z,20.77
2022-11-24T08:33:38.867Z,20.25
2022-11-24T08:36:07.470Z,21.73
2022-11-24T08:38:34.841Z,22.42
2022-11-24T08:41:03.401Z,24.35
2022-11-24T08:43:33.913Z,22.05
2022-11-24T08:46:12.854Z,21.92
2022-11-24T08:48:40.066Z,21.40
2022-11-24T08:51:12.075Z,21.65
2022-11-24T08:53:39.613Z,21.08
2022-11-24T08:56:08.133Z,22.92
2022-11-24T08:58:35.713Z,20.20
2022-11-24T09:01:13.785Z,21.30
2022-11-24T09:03:46.540Z,22.52
2022-11-24T09:06:19.049Z,20.55
2022-11-24T09:08:46.014Z,22.52
2022-11-24T09:11:14.520Z,22.70
2022-11-24T09:13:41.977Z,21.90
2022-11-24T09:16:14.362Z,19.20
2022-11-24T09:18:41.993Z,21.45
2022-11-24T09:21:13.443Z,21.25
2022-11-24T09:23:40.873Z,22.40
2022-11-24T09:26:09.763Z,22.98
2022-11-24T09:28:36.867Z,20.48
2022-11-24T09:31:05.518Z,22.75
2022-11-24T09:33:33.677Z,22.40
2022-11-24T09:36:00.913Z,22.20
2022-11-24T09:38:28.368Z,24.27
2022-11-24T09:40:58.486Z,25.02
2022-11-24T09:43:51.787Z,26.20
2022-11-24T09:46:33.704Z,24.83
2022-11-24T09:49:01.922Z,24.00
2022-11-24T09:51:32.009Z,24.45
2022-11-24T09:54:25.473Z,25.48
2022-11-24T09:56:52.892Z,24.40
2022-11-24T09:59:23.971Z,25.80
2022-11-24T10:01:52.301Z,24.42
2022-11-24T10:04:35.150Z,23.65
2022-11-24T10:07:07.861Z,25.25
2022-11-24T10:09:44.131Z,25.27
2022-11-24T10:12:51.322Z,26.27
2022-11-24T10:15:40.101Z,26.10
2022-11-24T10:18:29.474Z,26.02
2022-11-24T10:21:14.263Z,28.50
2022-11-24T10:23:59.803Z,27.13
2022-11-24T10:26:40.966Z,28.73
2022-11-24T10:29:21.528Z,25.33
2022-11-24T10:31:49.272Z,25.23
2022-11-24T10:34:23.819Z,27.15
2022-11-24T10:37:09.506Z,28.08
2022-11-24T10:39:41.831Z,29.83
2022-11-24T10:42:16.510Z,27.48
2022-11-24T10:44:43.927Z,27.70
2022-11-24T10:47:23.130Z,27.08
2022-11-24T10:49:57.209Z,26.02
2022-11-24T10:52:26.103Z,25.08
2022-11-24T10:54:58.446Z,22.63
2022-11-24T10:57:32.980Z,24.58
2022-11-24T11:00:01.167Z,24.00
2022-11-24T11:02:39.851Z,24.60
2022-11-24T11:05:35.664Z,24.58
2022-11-24T11:08:14.818Z,22.08
2022-11-24T11:10:43.787Z,23.73
2022-11-24T11:13:28.615Z,22.25
2022-11-24T11:15:57.368Z,22.05
2022-11-24T11:18:33.049Z,23.20
2022-11-24T11:21:05.226Z,23.30
2022-11-24T11:23:35.297Z,22.17
2022-11-24T11:26:20.621Z,22.58
2022-11-24T11:34:53.129Z,24.05
2022-11-24T11:37:21.324Z,24.67
2022-11-24T11:39:51.177Z,23.63
2022-11-24T11:45:28.445Z,21.40
2022-11-24T11:48:01.632Z,21.35
2022-11-24T11:51:21.818Z,21.40
2022-11-24T11:53:52.199Z,22.00
2022-11-24T11:56:27.436Z,22.25
2022-11-24T11:59:18.750Z,19.85
2022-11-24T12:02:19.422Z,20.63
2022-11-24T12:04:55.036Z,20.27
2022-11-24T12:07:49.545Z,19.67
2022-11-24T12:10:44.388Z,20.15
2022-11-24T12:13:23.450Z,20.45
2022-11-24T12:15:52.449Z,21.92
2022-11-24T12:21:26.635Z,20.77
2022-11-24T12:23:56.874Z,21.63
2022-11-24T12:26:36.101Z,19.80
2022-11-24T12:29:24.445Z,24.05
2022-11-24T12:31:53.159Z,22.75
2022-11-24T12:34:29.029Z,21.35
2022-11-24T12:37:12.990Z,21.08
2022-11-24T12:39:51.046Z,22.23
2022-11-24T12:42:31.542Z,22.85
2022-11-24T12:45:07.045Z,22.42
2022-11-24T12:47:52.920Z,22.75
2022-11-24T12:50:22.857Z,22.52
2022-11-24T12:53:01.181Z,21.35
2022-11-24T12:55:29.605Z,22.05
2022-11-24T12:58:11.197Z,23.73
2022-11-24T13:00:53.331Z,22.38
2022-11-24T13:03:40.221Z,25.75
2022-11-24T13:06:16.108Z,23.52
2022-11-24T13:08:43.500Z,22.48
2022-11-24T13:11:38.131Z,23.65
2022-11-24T13:14:07.991Z,26.25
2022-11-24T13:16:40.825Z,26.40
2022-11-24T13:19:20.268Z,24.10
2022-11-24T13:21:53.135Z,23.83
2022-11-24T13:24:26.045Z,25.60
2022-11-24T13:27:16.298Z,24.08
2022-11-24T13:29:45.308Z,22.58
2022-11-24T13:32:15.194Z,25.65
2022-11-24T13:34:50.062Z,29.40
2022-11-24T13:37:31.271Z,30.75
2022-11-24T13:40:11.984Z,36.03
2022-11-24T13:43:03.489Z,29.42
2022-11-24T13:45:40.090Z,36.50
2022-11-24T13:48:20.094Z,36.30
2022-11-24T13:50:50.740Z,36.67
2022-11-24T13:53:43.250Z,35.10
2022-11-24T13:56:25.602Z,30.52
2022-11-24T13:58:58.940Z,31.50
2022-11-24T14:01:37.357Z,29.08
2022-11-24T14:04:30.555Z,26.42
2022-11-24T14:07:07.305Z,27.40
2022-11-24T14:09:42.438Z,28.27
2022-11-24T14:12:13.125Z,28.02
2022-11-24T14:17:24.644Z,26.13
2022-11-24T14:19:56.681Z,27.98
2022-11-24T14:22:40.951Z,28.23
2022-11-24T14:25:30.486Z,28.30
2022-11-24T14:27:57.933Z,29.67
2022-11-24T14:30:25.963Z,29.75
2022-11-24T14:33:01.484Z,33.28
2022-11-24T14:35:34.080Z,37.08
2022-11-24T14:38:05.493Z,36.47
2022-11-24T14:40:39.638Z,39.72
2022-11-24T14:43:15.695Z,40.78
2022-11-24T14:46:09.624Z,40.05
2022-11-24T14:48:37.943Z,43.28
2022-11-24T14:51:10.845Z,44.75
2022-11-24T14:53:42.311Z,43.40
2022-11-24T14:56:22.886Z,41.17
2022-11-24T14:58:50.219Z,45.67
2022-11-24T15:01:27.823Z,41.72
2022-11-24T15:04:22.066Z,39.40
2022-11-24T15:07:15.506Z,41.22
2022-11-24T15:09:49.239Z,35.35
2022-11-24T15:12:37.544Z,41.95
2022-11-24T15:15:20.608Z,44.08
2022-11-24T15:17:53.129Z,50.65
2022-11-24T15:20:37.225Z,44.88
2022-11-24T15:23:26.488Z,60.80
2022-11-24T15:25:55.106Z,52.25
2022-11-24T15:28:28.403Z,46.28
2022-11-24T15:30:57.310Z,47.53
2022-11-24T15:33:24.473Z,47.25
2022-11-24T15:35:51.547Z,49.72
2022-11-24T15:38:18.805Z,69.90
2022-11-24T15:40:47.602Z,66.70
2022-11-24T15:43:35.573Z,72.38
2022-11-24T15:46:03.801Z,68.35
2022-11-24T15:48:30.999Z,120.93
2022-11-24T15:50:58.999Z,92.50
2022-11-24T15:53:31.226Z,118.07
2022-11-24T15:55:58.433Z,106.32
2022-11-24T15:58:25.867Z,95.50
2022-11-24T16:00:53.934Z,74.88
2022-11-24T16:03:46.198Z,134.05
2022-11-24T16:06:23.681Z,199.35
2022-11-24T16:08:51.623Z,159.38
2022-11-24T16:11:18.626Z,103.20
2022-11-24T16:13:51.597Z,113.32
2022-11-24T16:16:20.185Z,98.22
2022-11-24T16:18:47.192Z,61.50
2022-11-24T16:21:14.480Z,52.15
2022-11-24T16:23:41.543Z,50.90
2022-11-24T16:26:08.821Z,52.03
2022-11-24T16:28:35.797Z,55.42
2022-11-24T16:31:02.750Z,79.32
2022-11-24T16:33:30.428Z,54.45
2022-11-24T16:35:57.578Z,49.47
2022-11-24T16:38:24.635Z,49.15
2022-11-24T16:40:53.304Z,53.80
2022-11-24T16:43:20.769Z,50.47
2022-11-24T16:45:59.074Z,59.03
2022-11-24T16:48:26.156Z,45.22
2022-11-24T16:50:53.138Z,46.67
2022-11-24T16:53:20.051Z,42.95
2022-11-24T16:55:57.054Z,43.40
2022-11-24T16:58:23.986Z,46.78
2022-11-24T17:00:50.980Z,46.65
2022-11-24T17:03:17.990Z,46.60
2022-11-24T17:05:44.922Z,48.33
2022-11-24T17:08:12.107Z,54.40
2022-11-24T17:10:39.430Z,60.25
2022-11-24T17:13:06.725Z,74.82
2022-11-24T17:15:37.767Z,57.83
2022-11-24T17:18:23.931Z,50.63
2022-11-24T17:20:51.841Z,54.08
2022-11-24T17:23:19.893Z,47.08
2022-11-24T17:25:48.640Z,48.75
2022-11-24T17:28:15.593Z,56.38
2022-11-24T17:30:42.975Z,52.25
2022-11-24T17:33:10.045Z,49.97
2022-11-24T17:35:37.343Z,55.45
2022-11-24T17:38:04.689Z,50.38
2022-11-24T17:40:31.635Z,45.85
2022-11-24T17:43:02.220Z,46.47
2022-11-24T17:45:30.012Z,43.88
2022-11-24T17:47:59.273Z,59.05
2022-11-24T17:50:26.680Z,55.15
2022-11-24T17:52:54.337Z,54.55
2022-11-24T17:55:22.821Z,59.38
2022-11-24T17:57:50.821Z,64.78
2022-11-24T18:00:18.232Z,70.88
2022-11-24T18:02:45.210Z,73.82
2022-11-24T18:05:12.156Z,72.55
2022-11-24T18:07:39.257Z,50.60
2022-11-24T18:10:06.801Z,63.05
2022-11-24T18:12:33.759Z,54.20
2022-11-24T18:15:00.697Z,45.65
2022-11-24T18:17:29.394Z,40.45
2022-11-24T18:19:56.472Z,53.35
2022-11-24T18:22:43.073Z,66.63
2022-11-24T18:25:10.447Z,56.80
2022-11-24T18:27:37.380Z,55.13
2022-11-24T18:30:05.805Z,52.55
2022-11-24T18:32:32.856Z,49.53
2022-11-24T18:34:59.781Z,45.05
2022-11-24T18:37:26.747Z,45.85
2022-11-24T18:39:53.664Z,49.88
2022-11-24T18:42:21.334Z,50.97
2022-11-24T18:44:52.562Z,53.95
2022-11-24T18:47:20.811Z,59.08
2022-11-24T18:49:47.743Z,57.00
2022-11-24T18:52:14.933Z,58.30
2022-11-24T18:54:42.980Z,44.05
2022-11-24T18:57:09.886Z,45.72
2022-11-24T18:59:37.160Z,47.20
2022-11-24T19:02:04.149Z,46.83
2022-11-24T19:04:31.140Z,43.03
2022-11-24T19:06:58.039Z,42.15
2022-11-24T19:09:25.913Z,41.85
2022-11-24T19:11:52.920Z,45.28
2022-11-24T19:14:20.530Z,41.70
2022-11-24T19:16:50.899Z,45.80
2022-11-24T19:19:17.997Z,46.50
2022-11-24T19:21:45.499Z,51.65
2022-11-24T19:24:13.475Z,48.45
2022-11-24T19:26:41.013Z,46.17
2022-11-24T19:29:09.204Z,48.28
2022-11-24T19:31:38.564Z,50.20
2022-11-24T19:34:06.318Z,54.88
2022-11-24T19:36:33.484Z,50.40
2022-11-24T19:39:00.505Z,53.05
2022-11-24T19:41:30.566Z,54.22
2022-11-24T19:43:59.030Z,54.53
2022-11-24T19:46:29.838Z,49.60
2022-11-24T19:48:59.419Z,46.75
2022-11-24T19:51:32.635Z,48.60
2022-11-24T19:54:00.205Z,49.58
2022-11-24T19:56:29.367Z,51.30
2022-11-24T19:58:58.874Z,50.97
2022-11-24T20:01:32.938Z,65.28
2022-11-24T20:04:02.242Z,65.03
2022-11-24T20:06:31.770Z,58.85
2022-11-24T20:09:00.774Z,61.30
2022-11-24T20:11:28.688Z,61.88
2022-11-24T20:13:56.196Z,66.47
2022-11-24T20:16:29.761Z,66.88
2022-11-24T20:18:58.699Z,52.85
2022-11-24T20:21:36.885Z,48.63
2022-11-24T20:24:10.841Z,49.15
2022-11-24T20:26:41.477Z,53.67
2022-11-24T20:29:12.492Z,45.90
2022-11-24T20:31:48.457Z,51.38
2022-11-24T20:34:15.910Z,53.53
2022-11-24T20:36:45.484Z,53.95
2022-11-24T20:39:28.066Z,55.50
2022-11-24T20:41:56.027Z,48.45
2022-11-24T20:44:24.096Z,49.25
2022-11-24T20:46:51.249Z,48.47
2022-11-24T20:49:20.081Z,48.28
2022-11-24T20:51:49.780Z,50.05
2022-11-24T20:54:18.061Z,48.28
2022-11-24T20:56:46.776Z,51.15
2022-11-24T20:59:16.202Z,51.13
2022-11-24T21:01:45.663Z,54.40
2022-11-24T21:04:15.787Z,49.13
2022-11-24T21:06:42.952Z,50.78
2022-11-24T21:09:13.350Z,51.08
2022-11-24T21:11:40.546Z,54.70
2022-11-24T21:14:08.212Z,55.33
2022-11-24T21:16:37.187Z,51.05
2022-11-24T21:19:06.331Z,58.47
2022-11-24T21:21:35.763Z,60.13
2022-11-24T21:24:10.425Z,57.25
2022-11-24T21:26:38.203Z,61.35
2022-11-24T21:29:05.248Z,62.90
2022-11-24T21:31:36.088Z,60.67
2022-11-24T21:34:03.360Z,62.45
2022-11-24T21:36:31.884Z,69.22
2022-11-24T21:38:59.376Z,64.35
2022-11-24T21:41:28.246Z,63.42
2022-11-24T21:43:58.591Z,78.32
2022-11-24T21:46:25.805Z,67.57
2022-11-24T21:48:52.632Z,69.10
2022-11-24T21:51:21.022Z,66.57
2022-11-24T21:53:48.271Z,71.65
2022-11-24T21:56:17.907Z,73.43
2022-11-24T21:58:49.662Z,67.60
2022-11-24T22:01:18.158Z,70.15
2022-11-24T22:03:46.151Z,82.38
2022-11-24T22:06:13.652Z,83.60
2022-11-24T22:08:40.615Z,81.10
2022-11-24T22:11:12.390Z,69.55
2022-11-24T22:13:39.704Z,57.65
2022-11-24T22:16:09.100Z,68.30
2022-11-24T22:18:40.709Z,68.90
2022-11-24T22:21:10.353Z,97.63
2022-11-24T22:23:37.892Z,91.90
2022-11-24T22:26:07.168Z,99.18
2022-11-24T22:28:35.628Z,67.28
2022-11-24T22:31:07.022Z,65.47
2022-11-24T22:33:34.824Z,63.15
2022-11-24T22:36:02.582Z,64.38
2022-11-24T22:38:30.334Z,57.45
2022-11-24T22:41:12.265Z,56.25
2022-11-24T22:43:40.217Z,54.20
2022-11-24T22:46:12.720Z,54.40
2022-11-24T22:48:40.552Z,52.67
2022-11-24T22:51:13.689Z,56.88
2022-11-24T22:53:41.424Z,49.80
2022-11-24T22:56:11.260Z,50.50
2022-11-24T22:58:39.342Z,52.60
2022-11-24T23:01:09.728Z,53.70
2022-11-24T23:03:37.363Z,54.42
2022-11-24T23:06:06.815Z,50.85
2022-11-24T23:08:34.890Z,54.25
2022-11-24T23:11:05.387Z,53.95
2022-11-24T23:13:32.757Z,52.40
2022-11-24T23:16:01.960Z,60.75
2022-11-24T23:18:29.612Z,57.42
2022-11-24T23:20:57.033Z,61.25
2022-11-24T23:23:24.204Z,63.72
2022-11-24T23:25:51.237Z,61.58
2022-11-24T23:28:18.166Z,62.38
2022-11-24T23:30:45.738Z,66.88
2022-11-24T23:33:12.842Z,59.00
2022-11-24T23:35:40.008Z,63.53
2022-11-24T23:38:08.042Z,60.45
2022-11-24T23:40:35.374Z,65.72
2022-11-24T23:43:02.356Z,59.22
2022-11-24T23:45:29.282Z,66.75
2022-11-24T23:47:56.348Z,51.13
2022-11-24T23:50:23.390Z,61.60
2022-11-24T23:52:50.264Z,57.05
2022-11-24T23:55:17.746Z,61.78
2022-11-24T23:57:44.672Z,66.35
